createdAt,value
2018-10-18T00:00:59.603Z,101999.78
2018-10-18T00:04:05.113Z,101994.50
2018-10-18T00:07:10.560Z,102002.05
2018-10-18T00:10:16.330Z,102005.80
2018-10-18T00:13:22.047Z,102004.56
2018-10-18T00:16:27.632Z,102001.03
2018-10-18T00:19:33.592Z,102001.19
2018-10-18T00:22:39.127Z,101996.63
2018-10-18T00:25:44.584Z,101999.18
2018-10-18T00:28:50.076Z,102000.88
2018-10-18T00:31:55.577Z,102003.19
2018-10-18T00:35:01.207Z,102001.94
2018-10-18T00:38:07.812Z,102004.25
2018-10-18T00:41:13.481Z,102008.43
2018-10-18T00:44:18.976Z,102012.83
2018-10-18T00:47:25.951Z,102009.37
2018-10-18T00:50:31.420Z,102007.65
2018-10-18T00:53:37.032Z,102009.77
2018-10-18T00:56:43.218Z,102007.98
2018-10-18T00:59:48.698Z,102008.04
2018-10-18T01:02:54.131Z,102006.83
2018-10-18T01:06:00.491Z,102010.97
2018-10-18T01:09:09.343Z,102002.11
2018-10-18T01:12:14.795Z,102004.05
2018-10-18T01:15:20.443Z,102005.61
2018-10-18T01:18:25.893Z,102013.46
2018-10-18T01:21:31.887Z,102011.52
2018-10-18T01:24:37.852Z,102006.97
2018-10-18T01:27:43.633Z,102009.55
2018-10-18T01:30:49.109Z,102011.70
2018-10-18T01:33:54.580Z,102011.27
2018-10-18T01:37:00.399Z,102011.80
2018-10-18T01:40:06.093Z,102007.92
2018-10-18T01:43:11.796Z,102007.38
2018-10-18T01:46:17.236Z,102013.91
2018-10-18T01:49:22.675Z,102012.98
2018-10-18T01:52:28.118Z,102011.78
2018-10-18T01:55:33.580Z,102014.72
2018-10-18T01:58:39.248Z,102013.16
2018-10-18T02:01:44.688Z,102022.55
2018-10-18T02:04:50.161Z,102020.92
2018-10-18T02:07:55.942Z,102020.89
2018-10-18T02:11:01.584Z,102025.17
2018-10-18T02:14:07.348Z,102017.63
2018-10-18T02:17:12.793Z,102021.48
2018-10-18T02:20:18.247Z,102016.67
2018-10-18T02:23:23.706Z,102020.34
2018-10-18T02:26:29.233Z,102015.27
2018-10-18T02:29:34.680Z,102015.73
2018-10-18T02:32:40.355Z,102020.69
2018-10-18T02:35:46.746Z,102019.94
2018-10-18T02:38:52.196Z,102017.58
2018-10-18T02:41:57.681Z,102029.54
2018-10-18T02:45:04.327Z,102028.11
2018-10-18T02:48:09.753Z,102031.45
2018-10-18T02:51:15.459Z,102026.45
2018-10-18T02:54:21.011Z,102029.52
2018-10-18T02:57:26.572Z,102019.41
2018-10-18T03:00:34.479Z,102023.08
2018-10-18T03:03:39.941Z,102020.52
2018-10-18T03:06:45.411Z,102020.77
2018-10-18T03:09:50.837Z,102022.73
2018-10-18T03:12:56.322Z,102022.67
2018-10-18T03:16:01.875Z,102031.66
2018-10-18T03:19:07.817Z,102032.03
2018-10-18T03:22:13.287Z,102038.96
2018-10-18T03:25:18.731Z,102045.62
2018-10-18T03:28:24.204Z,102047.40
2018-10-18T03:31:30.377Z,102042.83
2018-10-18T03:34:35.795Z,102045.16
2018-10-18T03:37:41.264Z,102046.09
2018-10-18T03:40:46.719Z,102051.56
2018-10-18T03:43:52.253Z,102051.84
2018-10-18T03:46:57.808Z,102046.61
2018-10-18T03:50:03.328Z,102051.47
2018-10-18T03:53:08.757Z,102052.65
2018-10-18T03:56:14.993Z,102052.78
2018-10-18T03:59:27.049Z,102049.94
2018-10-18T04:02:34.868Z,102048.58
2018-10-18T04:05:40.868Z,102041.10
2018-10-18T04:08:46.592Z,102050.67
2018-10-18T04:11:52.071Z,102052.18
2018-10-18T04:14:57.723Z,102040.68
2018-10-18T04:18:03.281Z,102046.20
2018-10-18T04:21:08.954Z,102042.18
2018-10-18T04:24:14.531Z,102043.73
2018-10-18T04:27:20.117Z,102040.86
2018-10-18T04:30:25.660Z,102039.80
2018-10-18T04:33:31.237Z,102038.11
2018-10-18T04:36:36.752Z,102040.40
2018-10-18T04:39:42.377Z,102045.44
2018-10-18T04:42:47.827Z,102041.57
2018-10-18T04:45:53.243Z,102040.59
2018-10-18T04:48:58.807Z,102036.29
2018-10-18T04:52:04.611Z,102044.66
2018-10-18T04:55:10.114Z,102050.69
2018-10-18T04:58:16.539Z,102040.72
2018-10-18T05:01:22.557Z,102050.54
2018-10-18T05:04:28.534Z,102050.16
2018-10-18T05:07:34.018Z,102047.40
2018-10-18T05:10:39.451Z,102049.17
2018-10-18T05:13:45.032Z,102051.20
2018-10-18T05:16:50.476Z,102059.23
2018-10-18T05:19:55.967Z,102067.69
2018-10-18T05:23:01.535Z,102069.38
2018-10-18T05:26:08.147Z,102071.54
2018-10-18T05:29:13.723Z,102070.17
2018-10-18T05:32:19.195Z,102075.41
2018-10-18T05:35:24.656Z,102073.97
2018-10-18T05:38:30.708Z,102077.13
2018-10-18T05:41:36.224Z,102076.99
2018-10-18T05:44:41.676Z,102082.66
2018-10-18T05:47:48.616Z,102093.73
2018-10-18T05:50:54.163Z,102093.88
2018-10-18T05:53:59.780Z,102093.08
2018-10-18T05:57:06.304Z,102092.70
2018-10-18T06:00:15.882Z,102105.00
2018-10-18T06:03:21.571Z,102112.77
2018-10-18T06:06:27.112Z,102111.46
2018-10-18T06:09:33.974Z,102115.33
2018-10-18T06:12:41.989Z,102104.13
2018-10-18T06:15:47.440Z,102123.19
2018-10-18T06:18:53.052Z,102125.53
2018-10-18T06:21:59.270Z,102131.62
2018-10-18T06:25:04.970Z,102133.91
2018-10-18T06:28:10.644Z,102145.59
2018-10-18T06:31:17.459Z,102145.97
2018-10-18T06:34:22.905Z,102144.27
2018-10-18T06:37:29.190Z,102150.95
2018-10-18T06:40:34.932Z,102156.44
2018-10-18T06:43:41.535Z,102161.62
2018-10-18T06:46:47.005Z,102167.69
2018-10-18T06:49:52.830Z,102164.12
2018-10-18T06:52:59.463Z,102172.06
2018-10-18T06:56:05.314Z,102175.22
2018-10-18T06:59:10.804Z,102172.11
2018-10-18T07:02:16.367Z,102176.59
2018-10-18T07:05:21.882Z,102182.47
2018-10-18T07:08:27.363Z,102183.66
2018-10-18T07:11:32.915Z,102182.69
2018-10-18T07:14:38.496Z,102180.50
2018-10-18T07:17:44.545Z,102177.50
2018-10-18T07:20:50.907Z,102182.84
2018-10-18T07:23:56.384Z,102198.17
2018-10-18T07:27:02.974Z,102196.22
2018-10-18T07:30:20.034Z,102195.03
2018-10-18T07:33:25.725Z,102200.39
2018-10-18T07:36:31.206Z,102199.95
2018-10-18T07:39:36.763Z,102197.53
2018-10-18T07:42:45.508Z,102200.30
2018-10-18T07:45:50.911Z,102212.06
2018-10-18T07:48:56.361Z,102204.20
2018-10-18T07:52:01.769Z,102197.52
2018-10-18T07:55:09.240Z,102196.53
2018-10-18T07:58:14.643Z,102196.36
2018-10-18T08:01:20.076Z,102191.78
2018-10-18T08:04:25.542Z,102201.29
2018-10-18T08:07:30.948Z,102203.83
2018-10-18T08:10:36.784Z,102203.97
2018-10-18T08:13:42.218Z,102212.48
2018-10-18T08:16:47.848Z,102212.34
2018-10-18T08:19:53.557Z,102219.77
2018-10-18T08:22:59.608Z,102215.84
2018-10-18T08:26:05.041Z,102219.40
2018-10-18T08:29:10.476Z,102215.92
2018-10-18T08:32:15.897Z,102223.73
2018-10-18T08:35:21.335Z,102223.45
2018-10-18T08:38:26.805Z,102222.59
2018-10-18T08:41:32.318Z,102223.74
2018-10-18T08:44:38.149Z,102229.13
2018-10-18T08:47:44.078Z,102238.15
2018-10-18T08:50:50.225Z,102227.68
2018-10-18T08:53:55.715Z,102226.89
2018-10-18T08:57:01.164Z,102232.48
2018-10-18T09:00:08.674Z,102237.48
2018-10-18T09:03:14.108Z,102238.14
2018-10-18T09:06:20.495Z,102243.48
2018-10-18T09:09:25.918Z,102237.30
2018-10-18T09:12:31.610Z,102240.69
2018-10-18T09:15:37.072Z,102237.95
2018-10-18T09:18:42.532Z,102236.08
2018-10-18T09:21:47.984Z,102244.62
2018-10-18T09:24:54.243Z,102244.62
2018-10-18T09:27:59.703Z,102252.40
2018-10-18T09:31:05.908Z,102256.92
2018-10-18T09:34:11.485Z,102251.82
2018-10-18T09:37:17.716Z,102253.54
2018-10-18T09:40:23.310Z,102255.64
2018-10-18T09:43:28.824Z,102257.14
2018-10-18T09:46:35.391Z,102259.66
2018-10-18T09:49:40.877Z,102259.16
2018-10-18T09:52:46.425Z,102263.02
2018-10-18T09:55:51.870Z,102265.86
2018-10-18T09:58:57.498Z,102270.97
2018-10-18T10:02:08.763Z,102266.59
2018-10-18T10:05:14.221Z,102271.28
2018-10-18T10:08:19.742Z,102266.27
2018-10-18T10:11:25.914Z,102271.08
2018-10-18T10:14:32.202Z,102271.80
2018-10-18T10:17:38.249Z,102275.81
2018-10-18T10:20:43.858Z,102277.53
2018-10-18T10:23:49.699Z,102274.70
2018-10-18T10:26:55.223Z,102281.55
2018-10-18T10:30:00.659Z,102283.27
2018-10-18T10:33:06.545Z,102280.05
2018-10-18T10:36:12.136Z,102283.94
2018-10-18T10:39:18.256Z,102281.22
2018-10-18T10:42:24.296Z,102285.77
2018-10-18T10:45:29.788Z,102286.36
2018-10-18T10:48:35.447Z,102288.91
2018-10-18T10:51:40.847Z,102292.25
2018-10-18T10:54:46.327Z,102286.16
2018-10-18T10:57:51.766Z,102284.17
2018-10-18T11:01:08.896Z,102281.55
2018-10-18T11:04:14.344Z,102285.64
2018-10-18T11:07:20.045Z,102285.70
2018-10-18T11:10:25.480Z,102282.72
2018-10-18T11:13:31.277Z,102280.53
2018-10-18T11:16:37.075Z,102295.08
2018-10-18T11:19:42.607Z,102288.17
2018-10-18T11:22:47.994Z,102284.84
2018-10-18T11:25:53.622Z,102300.95
2018-10-18T11:28:59.048Z,102304.94
2018-10-18T11:32:04.535Z,102307.09
2018-10-18T11:35:10.258Z,102311.69
2018-10-18T11:38:16.067Z,102316.93
2018-10-18T11:41:21.598Z,102322.83
2018-10-18T11:44:32.156Z,102325.81
2018-10-18T11:47:38.031Z,102324.13
2018-10-18T11:50:43.818Z,102324.27
2018-10-18T11:53:49.177Z,102324.59
2018-10-18T11:56:55.006Z,102325.91
2018-10-18T12:00:00.410Z,102318.88
2018-10-18T12:03:06.648Z,102322.67
2018-10-18T12:06:12.442Z,102315.34
2018-10-18T12:09:17.799Z,102323.80
2018-10-18T12:12:23.189Z,102318.61
2018-10-18T12:15:28.581Z,102319.53
2018-10-18T12:18:34.033Z,102319.91
2018-10-18T12:21:40.371Z,102321.70
2018-10-18T12:24:45.717Z,102324.34
2018-10-18T12:27:51.098Z,102321.58
2018-10-18T12:30:57.631Z,102324.38
2018-10-18T12:34:03.562Z,102325.08
2018-10-18T12:37:08.982Z,102323.08
2018-10-18T12:40:14.538Z,102325.78
2018-10-18T12:43:20.066Z,102320.22
2018-10-18T12:46:25.714Z,102322.21
2018-10-18T12:49:31.098Z,102320.78
2018-10-18T12:52:36.510Z,102317.13
2018-10-18T12:55:41.862Z,102316.50
2018-10-18T12:58:47.271Z,102324.87
2018-10-18T13:01:53.110Z,102319.30
2018-10-18T13:04:58.678Z,102323.93
2018-10-18T13:08:04.119Z,102331.08
2018-10-18T13:11:09.869Z,102325.67
2018-10-18T13:14:15.297Z,102332.14
2018-10-18T13:17:20.862Z,102332.63
2018-10-18T13:20:26.775Z,102328.97
2018-10-18T13:23:45.188Z,102334.26
2018-10-18T13:26:53.478Z,102335.48
2018-10-18T13:29:59.053Z,102336.85
2018-10-18T13:33:04.606Z,102336.81
2018-10-18T13:36:10.021Z,102341.80
2018-10-18T13:39:16.328Z,102345.72
2018-10-18T13:42:21.875Z,102343.48
2018-10-18T13:45:27.207Z,102339.34
2018-10-18T13:48:32.558Z,102339.08
2018-10-18T13:51:37.894Z,102339.72
2018-10-18T13:54:43.342Z,102339.28
2018-10-18T13:57:49.417Z,102344.09
2018-10-18T14:00:54.804Z,102338.64
2018-10-18T14:04:00.186Z,102335.70
2018-10-18T14:07:05.555Z,102343.19
2018-10-18T14:10:10.954Z,102342.72
2018-10-18T14:13:16.378Z,102346.73
2018-10-18T14:16:21.727Z,102348.59
2018-10-18T14:19:27.113Z,102346.55
2018-10-18T14:22:32.489Z,102344.26
2018-10-18T14:25:37.879Z,102349.05
2018-10-18T14:28:43.257Z,102345.41
2018-10-18T14:31:48.641Z,102345.42
2018-10-18T14:34:54.025Z,102346.09
2018-10-18T14:37:59.660Z,102345.61
2018-10-18T14:41:05.476Z,102343.78
2018-10-18T14:44:11.144Z,102347.72
2018-10-18T14:47:16.717Z,102347.09
2018-10-18T14:50:22.406Z,102348.05
2018-10-18T14:53:29.116Z,102348.34
2018-10-18T14:56:36.823Z,102347.51
2018-10-18T14:59:42.686Z,102344.86
2018-10-18T15:02:48.090Z,102337.36
2018-10-18T15:05:53.438Z,102336.11
2018-10-18T15:08:58.810Z,102341.52
2018-10-18T15:12:04.297Z,102340.53
2018-10-18T15:15:10.889Z,102342.80
2018-10-18T15:18:16.389Z,102340.52
2018-10-18T15:21:22.334Z,102348.41
2018-10-18T15:24:27.723Z,102353.19
2018-10-18T15:27:34.535Z,102357.66
2018-10-18T15:30:58.984Z,102369.98
2018-10-18T15:34:04.995Z,102370.67
2018-10-18T15:37:10.363Z,102372.62
2018-10-18T15:40:16.150Z,102373.09
2018-10-18T15:43:21.536Z,102379.59
2018-10-18T15:46:27.514Z,102369.99
2018-10-18T15:49:32.861Z,102381.98
2018-10-18T15:52:38.284Z,102380.51
2018-10-18T15:55:43.722Z,102375.94
2018-10-18T15:58:49.106Z,102379.48
2018-10-18T16:01:54.471Z,102378.56
2018-10-18T16:04:59.998Z,102381.84
2018-10-18T16:08:05.877Z,102384.45
2018-10-18T16:11:11.401Z,102388.29
2018-10-18T16:14:17.104Z,102392.00
2018-10-18T16:17:22.589Z,102397.47
2018-10-18T16:20:27.995Z,102404.45
2018-10-18T16:23:33.727Z,102400.88
2018-10-18T16:26:39.309Z,102410.33
2018-10-18T16:29:44.829Z,102409.59
2018-10-18T16:32:50.213Z,102410.16
2018-10-18T16:35:55.617Z,102409.45
2018-10-18T16:39:01.463Z,102412.30
2018-10-18T16:42:07.180Z,102416.02
2018-10-18T16:45:13.965Z,102420.25
2018-10-18T16:48:19.558Z,102431.88
2018-10-18T16:51:25.211Z,102429.56
2018-10-18T16:54:30.806Z,102433.35
2018-10-18T16:57:36.414Z,102445.81
2018-10-18T17:00:41.795Z,102450.53
2018-10-18T17:03:48.450Z,102442.23
2018-10-18T17:06:53.877Z,102443.25
2018-10-18T17:09:59.529Z,102452.98
2018-10-18T17:13:05.701Z,102454.99
2018-10-18T17:16:11.186Z,102457.27
2018-10-18T17:19:16.784Z,102454.70
2018-10-18T17:22:22.154Z,102460.28
2018-10-18T17:25:27.926Z,102460.09
2018-10-18T17:28:33.405Z,102465.20
2018-10-18T17:31:38.771Z,102469.39
2018-10-18T17:34:44.135Z,102478.23
2018-10-18T17:37:49.646Z,102484.19
2018-10-18T17:40:55.087Z,102485.64
2018-10-18T17:44:00.484Z,102484.66
2018-10-18T17:47:06.472Z,102482.30
2018-10-18T17:50:12.830Z,102492.15
2018-10-18T17:53:18.277Z,102489.28
2018-10-18T17:56:23.630Z,102491.09
2018-10-18T17:59:29.100Z,102490.31
2018-10-18T18:02:34.462Z,102495.74
2018-10-18T18:05:39.827Z,102497.75
2018-10-18T18:08:45.240Z,102495.33
2018-10-18T18:11:50.938Z,102494.69
2018-10-18T18:14:56.369Z,102501.09
2018-10-18T18:18:01.852Z,102507.87
2018-10-18T18:21:07.487Z,102514.89
2018-10-18T18:24:12.914Z,102520.83
2018-10-18T18:27:18.328Z,102508.88
2018-10-18T18:30:23.733Z,102507.78
2018-10-18T18:33:29.083Z,102505.78
2018-10-18T18:36:34.481Z,102512.85
2018-10-18T18:39:39.933Z,102521.66
2018-10-18T18:42:45.562Z,102518.73
2018-10-18T18:45:50.929Z,102523.96
2018-10-18T18:48:56.437Z,102518.47
2018-10-18T18:52:02.155Z,102528.53
2018-10-18T18:55:09.163Z,102528.11
2018-10-18T18:58:14.558Z,102540.33
2018-10-18T19:01:21.119Z,102543.03
2018-10-18T19:04:28.709Z,102539.23
2018-10-18T19:07:34.629Z,102545.38
2018-10-18T19:10:40.218Z,102543.28
2018-10-18T19:13:45.653Z,102537.16
2018-10-18T19:16:51.026Z,102546.77
2018-10-18T19:19:56.426Z,102547.85
2018-10-18T19:23:01.849Z,102558.28
2018-10-18T19:26:07.517Z,102554.85
2018-10-18T19:29:13.332Z,102558.42
2018-10-18T19:32:18.806Z,102557.20
2018-10-18T19:35:24.283Z,102559.09
2018-10-18T19:38:29.794Z,102557.02
2018-10-18T19:41:35.338Z,102564.02
2018-10-18T19:44:40.759Z,102566.30
2018-10-18T19:47:46.127Z,102564.57
2018-10-18T19:50:51.627Z,102555.50
2018-10-18T19:53:57.778Z,102562.05
2018-10-18T19:57:03.335Z,102568.29
2018-10-18T20:00:10.061Z,102568.80
2018-10-18T20:03:15.443Z,102568.80
2018-10-18T20:06:21.626Z,102574.96
2018-10-18T20:09:27.172Z,102567.22
2018-10-18T20:12:33.346Z,102569.00
2018-10-18T20:15:38.742Z,102573.86
2018-10-18T20:18:44.314Z,102575.26
2018-10-18T20:21:49.705Z,102571.84
2018-10-18T20:24:55.348Z,102577.13
2018-10-18T20:28:00.818Z,102579.88
2018-10-18T20:31:07.109Z,102586.80
2018-10-18T20:34:12.473Z,102592.08
2018-10-18T20:37:17.949Z,102589.66
2018-10-18T20:40:23.481Z,102594.62
2018-10-18T20:43:28.862Z,102602.14
2018-10-18T20:46:34.994Z,102600.00
2018-10-18T20:49:40.566Z,102600.97
2018-10-18T20:52:45.931Z,102599.75
2018-10-18T20:55:51.334Z,102606.82
2018-10-18T20:58:56.825Z,102601.28
2018-10-18T21:02:02.215Z,102598.74
2018-10-18T21:05:07.906Z,102597.91
2018-10-18T21:08:13.369Z,102599.23
2018-10-18T21:11:18.805Z,102596.70
2018-10-18T21:14:24.197Z,102597.59
2018-10-18T21:17:29.566Z,102598.51
2018-10-18T21:20:34.943Z,102598.54
2018-10-18T21:23:40.346Z,102594.64
2018-10-18T21:26:45.725Z,102594.83
2018-10-18T21:29:51.242Z,102594.27
2018-10-18T21:32:56.677Z,102599.03
2018-10-18T21:36:02.214Z,102596.01
2018-10-18T21:39:08.622Z,102598.17
2018-10-18T21:42:14.190Z,102601.23
2018-10-18T21:45:19.727Z,102604.29
2018-10-18T21:48:27.387Z,102605.70
2018-10-18T21:51:32.714Z,102608.17
2018-10-18T21:54:38.117Z,102609.89
2018-10-18T21:57:43.479Z,102599.92
2018-10-18T22:00:49.085Z,102595.64
2018-10-18T22:03:54.436Z,102593.04
2018-10-18T22:06:59.802Z,102587.90
2018-10-18T22:10:06.124Z,102588.36
2018-10-18T22:13:11.582Z,102596.22
2018-10-18T22:16:16.963Z,102588.46
2018-10-18T22:19:22.411Z,102593.23
2018-10-18T22:22:27.766Z,102591.59
2018-10-18T22:25:33.185Z,102592.09
2018-10-18T22:28:38.602Z,102597.41
2018-10-18T22:31:46.082Z,102592.31
2018-10-18T22:34:51.442Z,102586.77
2018-10-18T22:37:56.814Z,102596.72
2018-10-18T22:41:02.324Z,102589.03
2018-10-18T22:44:08.953Z,102592.60
2018-10-18T22:47:14.531Z,102596.89
2018-10-18T22:50:20.132Z,102597.29
2018-10-18T22:53:25.503Z,102596.88
2018-10-18T22:56:30.914Z,102598.68
2018-10-18T22:59:38.542Z,102593.09
2018-10-18T23:02:43.878Z,102599.20
2018-10-18T23:05:49.606Z,102592.86
2018-10-18T23:08:55.095Z,102592.84
2018-10-18T23:12:00.647Z,102588.97
2018-10-18T23:15:08.439Z,102582.87
2018-10-18T23:18:14.048Z,102585.91
2018-10-18T23:21:19.536Z,102584.66
2018-10-18T23:24:24.926Z,102585.56
2018-10-18T23:27:32.258Z,102580.83
2018-10-18T23:30:37.787Z,102578.23
2018-10-18T23:33:43.454Z,102583.52
2018-10-18T23:36:48.831Z,102575.88
2018-10-18T23:39:54.365Z,102575.48
2018-10-18T23:42:59.727Z,102573.74
2018-10-18T23:46:06.030Z,102572.03
2018-10-18T23:49:11.414Z,102578.53
2018-10-18T23:52:16.899Z,102571.58
2018-10-18T23:55:22.258Z,102576.77
2018-10-18T23:58:27.582Z,102572.92
